Time Latitude Longitude Accuracy (66% radius in meters) Altitude (meters) Speed (km/hour) Bearing (degrees) Battery (%) GPS flag
06:55:31 57.204590 60.120975 4 325.86720779269 0.88021010160446 43.095626831055 87 1 delete
06:55:29 57.204569 60.120937 4 325.77892115093 0.80021774768829 45.554000854492 87 1 delete
06:55:18 57.204525 60.120895 4 325.41126153047 0.0048180907033384 268.78897094727 87 1 delete
06:55:08 57.204526 60.120895 4 325.39631076013 0.039398517459631 268.78897094727 87 1 delete
06:55:03 57.204511 60.120894 6 325.39186775404 0.87111085653305 279.26129150391 87 1 delete
06:54:59 57.204498 60.120729 12 325.38055623031 0.39224720001221 316.38580322266 87 1 delete
06:54:58 57.204485 60.120682 12 325.37679409017 0.49838149547577 316.38580322266 87 1 delete
06:54:57 57.204437 60.120581 16 325.37376907406 0.52693027257919 286.54653930664 87 1 delete
06:54:14 57.204313 60.120905 24 325.02886597115 0 0 89 1 delete
06:54:04 57.204404 60.120956 16 324.73969737203 0.28329569101334 287.65505981445 89 1 delete
06:53:54 57.204354 60.120857 16 324.70311828459 0.42752900719643 268.88250732422 89 1 delete
06:53:50 57.204368 60.120884 16 324.64827023683 0.66665834188461 241.69731140137 89 1 delete
06:53:43 57.204425 60.120934 16 324.54204328612 0.71290075778961 158.55825805664 89 1 delete
06:53:33 57.204434 60.120897 12 324.36063082757 0.0045270235277712 226.9439239502 89 1 delete
06:53:26 57.204458 60.120933 16 324.25038749019 0.60377609729767 199.2259979248 89 1 delete
06:53:22 57.204503 60.120994 16 324.15665868576 0.61796277761459 223.33438110352 89 1 delete
06:53:11 57.204510 60.120965 6 323.88537286528 0.91980361938477 138.86819458008 89 1 delete
06:53:01 57.204536 60.120886 4 323.55693922633 0.026675058528781 142.22351074219 89 1 delete
06:52:51 57.204537 60.120871 4 323.52054370319 0.50001174211502 142.22351074219 89 1 delete
06:52:49 57.204544 60.120852 4 323.45174668971 0.7790179848671 113.61027526855 89 1 delete
06:52:40 57.204543 60.120766 3 323.27132677861 0.11893803626299 86.463111877441 89 1 delete
06:52:30 57.204542 60.120731 3 323.21282928297 0.48458659648895 86.463111877441 89 1 delete
06:52:22 57.204528 60.120675 3 323.01380822705 1.7749155759811 43.779987335205 89 1 delete
06:52:19 57.204515 60.120600 4 322.9065567451 1.950194478035 53.957336425781 89 1 delete
06:52:17 57.204489 60.120514 4 322.83319942338 1.952376127243 49.742042541504 89 1 delete
06:52:14 57.204463 60.120345 4 322.71916764467 1.9077852964401 90.633697509766 89 1 delete
06:52:10 57.204465 60.120176 3 322.56556635758 1.9708578586578 97.59871673584 89 1 delete
06:52:09 57.204463 60.120130 3 322.52774614473 1.9995299577713 71.739952087402 89 1 delete
06:52:04 57.204457 60.119983 3 322.33441307305 2.3046765327454 71.65225982666 89 1 delete
06:51:59 57.204417 60.119814 3 322.1403500042 2.3834800720215 52.277946472168 89 1 delete
06:51:54 57.204352 60.119670 3 321.9444152189 2.501923084259 48.163425445557 89 1 delete
06:51:50 57.204296 60.119531 3 321.78280231314 2.4887366294861 57.137630462646 89 1 delete
06:51:48 57.204271 60.119443 3 321.70098917304 2.4409186840057 61.963680267334 89 1 delete
06:51:46 57.204243 60.119355 3 321.61820223135 2.3902158737183 58.253871917725 89 1 delete
06:51:42 57.204187 60.119180 3 321.44976946173 2.3985240459442 50.960193634033 89 1 delete
06:51:38 57.204145 60.119073 3 321.27873703596 2.713859796524 44.8489112854 89 1 delete
06:51:37 57.204125 60.119045 3 321.23645572045 2.7579212188721 29.546939849854 89 1 delete
06:51:32 57.204042 60.118933 2 321.02331206261 3.044873714447 35.175197601318 89 1 delete
06:51:28 57.203958 60.118816 4 320.84954679846 3.0655646324158 21.135398864746 89 1 delete
06:51:27 57.203935 60.118803 6 320.80485799581 2.9676377773285 14.705491065979 89 1 delete
06:51:24 57.203859 60.118771 6 320.67954400014 2.6556389331818 10.49854183197 89 1 delete
06:51:19 57.203760 60.118800 6 320.49357310941 1.5560127496719 349.90649414062 89 1 delete
06:51:17 57.203735 60.118804 6 320.4306584543 1.6098266839981 357.3069152832 89 1 delete
06:51:12 57.203659 60.118820 4 320.29426044427 2.5299167633057 343.11587524414 89 1 delete
06:51:08 57.203565 60.118890 6 320.21242703292 2.313086271286 335.04089355469 89 1 delete
06:51:06 57.203530 60.118949 6 320.17729820915 2.4858148097992 322.46984863281 89 1 delete
06:51:04 57.203490 60.119000 6 320.14826616323 2.8558769226074 330.25439453125 89 1 delete
06:51:01 57.203391 60.119059 4 320.11463366811 3.8130264282227 347.63311767578 89 1 delete
06:50:58 57.203283 60.119127 6 320.09505648263 4.7950973510742 342.75671386719 89 1 delete
06:50:56 57.203196 60.119181 6 320.02819047305 5.9379968643188 338.75604248047 89 1 delete